Time,TemperatureF,DewpointF,PressureIn,WindDirection,WindDirectionDegrees,WindSpeedMPH,WindSpeedGustMPH,Humidity,HourlyPrecipIn,Conditions,Clouds,dailyrainin,SoftwareType,DateUTC
2013-06-23 00:00:00,62.9,56.6,30.19,SSE,148,4.0,4.0,80,0.00,,,0.00,Wunderground v.1.15,2013-06-23 03:00:00,
2013-06-23 00:10:00,62.9,57.0,30.19,SSW,196,4.0,22.0,81,0.00,,,0.00,Wunderground v.1.15,2013-06-23 03:10:00,
2013-06-23 00:20:00,62.9,57.3,30.19,SSW,198,5.0,5.0,82,0.00,,,0.00,Wunderground v.1.15,2013-06-23 03:20:00,
2013-06-23 00:30:00,62.7,57.1,30.19,South,181,4.0,4.0,82,0.00,,,0.00,Wunderground v.1.15,2013-06-23 03:30:00,
2013-06-23 00:40:00,62.4,57.2,30.19,SSW,196,5.0,22.0,83,0.00,,,0.00,Wunderground v.1.15,2013-06-23 03:40:00,
2013-06-23 00:50:00,62.2,57.3,30.17,South,191,5.0,22.0,84,0.00,,,0.00,Wunderground v.1.15,2013-06-23 03:50:00,
2013-06-23 01:00:00,61.9,57.0,30.19,SSW,208,5.0,5.0,84,0.00,,,0.00,Wunderground v.1.15,2013-06-23 04:00:00,
2013-06-23 01:10:00,61.6,57.0,30.19,SW,228,5.0,5.0,85,0.00,,,0.00,Wunderground v.1.15,2013-06-23 04:10:00,
2013-06-23 01:20:00,61.3,56.8,30.19,SSW,203,4.0,22.0,85,0.00,,,0.00,Wunderground v.1.15,2013-06-23 04:20:00,
2013-06-23 01:30:00,61.0,56.8,30.20,South,191,4.0,4.0,86,0.00,,,0.00,Wunderground v.1.15,2013-06-23 04:30:00,
2013-06-23 01:40:00,60.8,56.6,30.20,SSW,202,4.0,4.0,86,0.00,,,0.00,Wunderground v.1.15,2013-06-23 04:40:00,
2013-06-23 01:50:00,60.6,56.7,30.20,South,179,4.0,22.0,87,0.00,,,0.00,Wunderground v.1.15,2013-06-23 04:50:00,
2013-06-23 02:00:00,60.4,56.8,30.20,SW,229,3.0,22.0,88,0.00,,,0.00,Wunderground v.1.15,2013-06-23 05:00:00,
2013-06-23 02:10:00,60.3,56.7,30.18,SW,224,3.0,22.0,88,0.00,,,0.00,Wunderground v.1.15,2013-06-23 05:10:00,
2013-06-23 02:20:00,60.1,56.5,30.20,South,182,3.0,22.0,88,0.00,,,0.00,Wunderground v.1.15,2013-06-23 05:20:00,
2013-06-23 02:30:00,60.2,56.6,30.18,SSE,160,4.0,22.0,88,0.00,,,0.00,Wunderground v.1.15,2013-06-23 05:30:00,
2013-06-23 02:40:00,60.0,56.4,30.20,SSW,205,4.0,22.0,88,0.00,,,0.00,Wunderground v.1.15,2013-06-23 05:40:00,
2013-06-23 02:50:00,59.8,56.6,30.18,South,190,4.0,4.0,89,0.00,,,0.00,Wunderground v.1.15,2013-06-23 05:50:00,
2013-06-23 03:00:00,59.7,56.5,30.20,SSW,195,4.0,22.0,89,0.00,,,0.00,Wunderground v.1.15,2013-06-23 06:00:00,
2013-06-23 03:10:00,59.5,56.3,30.17,SSE,162,4.0,22.0,89,0.00,,,0.00,Wunderground v.1.15,2013-06-23 06:10:00,
2013-06-23 03:20:00,59.4,56.2,30.20,SW,214,5.0,5.0,89,0.00,,,0.00,Wunderground v.1.15,2013-06-23 06:20:00,
2013-06-23 03:30:00,59.2,56.3,30.20,SSW,203,4.0,4.0,90,0.00,,,0.00,Wunderground v.1.15,2013-06-23 06:30:00,
2013-06-23 03:40:00,59.0,56.1,30.20,SW,217,3.0,22.0,90,0.00,,,0.00,Wunderground v.1.15,2013-06-23 06:40:00,
2013-06-23 03:50:00,59.1,56.2,30.20,South,187,3.0,3.0,90,0.00,,,0.00,Wunderground v.1.15,2013-06-23 06:50:00,
2013-06-23 04:00:00,59.2,56.6,30.20,SSW,198,3.0,22.0,91,0.00,,,0.00,Wunderground v.1.15,2013-06-23 07:00:00,
2013-06-23 04:10:00,59.3,56.4,30.20,SSE,165,4.0,22.0,90,0.00,,,0.00,Wunderground v.1.15,2013-06-23 07:10:00,
2013-06-23 04:20:00,59.2,56.3,30.20,SSW,213,3.0,22.0,90,0.00,,,0.00,Wunderground v.1.15,2013-06-23 07:20:00,
2013-06-23 04:30:00,59.3,56.4,30.20,SSW,195,3.0,22.0,90,0.00,,,0.00,Wunderground v.1.15,2013-06-23 07:30:00,
2013-06-23 04:40:00,59.6,56.7,30.20,SSW,200,3.0,22.0,90,0.00,,,0.00,Wunderground v.1.15,2013-06-23 07:40:00,
2013-06-23 04:50:00,59.5,56.6,30.20,SSW,210,3.0,3.0,90,0.00,,,0.00,Wunderground v.1.15,2013-06-23 07:50:00,
2013-06-23 05:00:00,59.5,56.6,30.18,South,186,3.0,3.0,90,0.00,,,0.00,Wunderground v.1.15,2013-06-23 08:00:00,
2013-06-23 05:10:00,59.5,56.6,30.19,South,183,3.0,22.0,90,0.00,,,0.00,Wunderground v.1.15,2013-06-23 08:10:00,
2013-06-23 05:20:00,59.7,56.8,30.19,SSE,156,3.0,22.0,90,0.00,,,0.00,Wunderground v.1.15,2013-06-23 08:20:00,
2013-06-23 05:30:00,59.8,56.9,30.20,SSW,203,3.0,22.0,90,0.00,,,0.00,Wunderground v.1.15,2013-06-23 08:30:00,
2013-06-23 05:40:00,60.1,56.8,30.20,SSW,193,3.0,3.0,89,0.00,,,0.00,Wunderground v.1.15,2013-06-23 08:40:00,
2013-06-23 05:50:00,60.2,56.9,30.20,SSW,203,3.0,3.0,89,0.00,,,0.00,Wunderground v.1.15,2013-06-23 08:50:00,
2013-06-23 06:00:00,60.3,57.0,30.18,SSW,213,3.0,22.0,89,0.00,,,0.00,Wunderground v.1.15,2013-06-23 09:00:00,
2013-06-23 06:10:00,60.4,57.1,30.21,SSW,210,2.0,22.0,89,0.00,,,0.00,Wunderground v.1.15,2013-06-23 09:10:00,
2013-06-23 06:20:00,60.3,57.0,30.21,South,191,3.0,3.0,89,0.00,,,0.00,Wunderground v.1.15,2013-06-23 09:20:00,
2013-06-23 06:30:00,60.2,56.9,30.21,South,186,2.0,22.0,89,0.00,,,0.00,Wunderground v.1.15,2013-06-23 09:30:00,
2013-06-23 06:40:00,61.1,57.8,30.19,South,181,2.0,2.0,89,0.00,,,0.00,Wunderground v.1.15,2013-06-23 09:40:00,
2013-06-23 06:50:00,62.3,58.4,30.22,South,180,3.0,22.0,87,0.00,,,0.00,Wunderground v.1.15,2013-06-23 09:50:00,
2013-06-23 07:00:00,63.2,58.6,30.22,SSW,197,3.0,22.0,85,0.00,,,0.00,Wunderground v.1.15,2013-06-23 10:00:00,
2013-06-23 07:10:00,64.2,59.3,30.23,SW,214,3.0,22.0,84,0.00,,,0.00,Wunderground v.1.15,2013-06-23 10:10:00,
2013-06-23 07:20:00,65.0,59.4,30.22,SW,215,4.0,4.0,82,0.00,,,0.00,Wunderground v.1.15,2013-06-23 10:20:00,
2013-06-23 07:30:00,65.9,60.2,30.23,SW,219,3.0,22.0,82,0.00,,,0.00,Wunderground v.1.15,2013-06-23 10:30:00,
2013-06-23 07:40:00,66.5,60.1,30.20,SSW,194,3.0,22.0,80,0.00,,,0.00,Wunderground v.1.15,2013-06-23 10:40:00,
2013-06-23 07:50:00,67.2,60.8,30.21,SSW,194,2.0,2.0,80,0.00,,,0.00,Wunderground v.1.15,2013-06-23 10:50:00,
2013-06-23 08:00:00,67.5,60.8,30.21,SW,232,3.0,3.0,79,0.00,,,0.00,Wunderground v.1.15,2013-06-23 11:00:00,
2013-06-23 08:10:00,68.2,61.1,30.22,SW,218,2.0,22.0,78,0.00,,,0.00,Wunderground v.1.15,2013-06-23 11:10:00,
2013-06-23 08:20:00,68.6,61.5,30.24,SSE,150,3.0,3.0,78,0.00,,,0.00,Wunderground v.1.15,2013-06-23 11:20:00,
2013-06-23 08:30:00,69.1,61.6,30.24,SSW,195,4.0,22.0,77,0.00,,,0.00,Wunderground v.1.15,2013-06-23 11:30:00,
2013-06-23 08:40:00,69.5,61.6,30.24,SSW,203,4.0,4.0,76,0.00,,,0.00,Wunderground v.1.15,2013-06-23 11:40:00,
2013-06-23 08:50:00,70.3,62.4,30.24,SW,221,4.0,22.0,76,0.00,,,0.00,Wunderground v.1.15,2013-06-23 11:50:00,
2013-06-23 09:00:00,71.2,63.2,30.24,SSE,153,3.0,3.0,76,0.00,,,0.00,Wunderground v.1.15,2013-06-23 12:00:00,
2013-06-23 09:10:00,71.9,62.4,30.22,SSW,211,4.0,4.0,72,0.00,,,0.00,Wunderground v.1.15,2013-06-23 12:10:00,
2013-06-23 09:20:00,72.4,63.3,30.22,SSW,205,3.0,22.0,73,0.00,,,0.00,Wunderground v.1.15,2013-06-23 12:20:00,
2013-06-23 09:30:00,73.1,63.1,30.21,WSW,239,3.0,22.0,71,0.00,,,0.00,Wunderground v.1.15,2013-06-23 12:30:00,
2013-06-23 09:40:00,73.5,63.5,30.24,SSE,161,3.0,22.0,71,0.00,,,0.00,Wunderground v.1.15,2013-06-23 12:40:00,
2013-06-23 09:50:00,74.7,64.7,30.24,SW,236,2.0,2.0,71,0.00,,,0.00,Wunderground v.1.15,2013-06-23 12:50:00,
2013-06-23 10:00:00,75.2,63.9,30.24,South,186,2.0,2.0,68,0.00,,,0.00,Wunderground v.1.15,2013-06-23 13:00:00,
2013-06-23 10:10:00,75.5,63.3,30.24,WSW,248,2.0,22.0,66,0.00,,,0.00,Wunderground v.1.15,2013-06-23 13:10:00,
2013-06-23 10:20:00,76.1,64.3,30.22,SSE,153,2.0,22.0,67,0.00,,,0.00,Wunderground v.1.15,2013-06-23 13:20:00,
2013-06-23 10:30:00,76.8,65.0,30.22,SE,142,2.0,22.0,67,0.00,,,0.00,Wunderground v.1.15,2013-06-23 13:30:00,
2013-06-23 10:40:00,76.7,64.5,30.24,SSE,153,3.0,22.0,66,0.00,,,0.00,Wunderground v.1.15,2013-06-23 13:40:00,
2013-06-23 10:50:00,77.0,64.8,30.24,SSW,198,3.0,3.0,66,0.00,,,0.00,Wunderground v.1.15,2013-06-23 13:50:00,
2013-06-23 11:00:00,78.2,65.0,30.22,SSW,194,2.0,2.0,64,0.00,,,0.00,Wunderground v.1.15,2013-06-23 14:00:00,
2013-06-23 11:10:00,78.9,66.1,30.22,South,170,2.0,22.0,65,0.00,,,0.00,Wunderground v.1.15,2013-06-23 14:10:00,
2013-06-23 11:20:00,77.1,66.1,30.24,SE,125,4.0,22.0,69,0.00,,,0.00,Wunderground v.1.15,2013-06-23 14:20:00,
2013-06-23 11:30:00,76.3,65.8,30.24,SSW,193,4.0,4.0,70,0.00,,,0.00,Wunderground v.1.15,2013-06-23 14:30:00,
2013-06-23 11:40:00,76.6,65.2,30.24,SE,133,3.0,22.0,68,0.00,,,0.00,Wunderground v.1.15,2013-06-23 14:40:00,
2013-06-23 11:50:00,76.3,65.8,30.22,ESE,103,3.0,3.0,70,0.00,,,0.00,Wunderground v.1.15,2013-06-23 14:50:00,
2013-06-23 12:00:00,77.2,67.5,30.24,NE,53,2.0,2.0,72,0.00,,,0.00,Wunderground v.1.15,2013-06-23 15:00:00,
2013-06-23 12:10:00,78.7,67.7,30.24,North,5,1.0,22.0,69,0.00,,,0.00,Wunderground v.1.15,2013-06-23 15:10:00,
2013-06-23 12:20:00,79.4,66.6,30.25,North,356,1.0,1.0,65,0.00,,,0.00,Wunderground v.1.15,2013-06-23 15:20:00,
2013-06-23 12:30:00,79.8,66.5,30.22,NNE,19,0.0,22.0,64,0.00,,,0.00,Wunderground v.1.15,2013-06-23 15:30:00,
2013-06-23 12:40:00,78.7,65.9,30.24,NW,307,1.0,22.0,65,0.00,,,0.00,Wunderground v.1.15,2013-06-23 15:40:00,
2013-06-23 12:50:00,79.1,66.3,30.23,WNW,301,1.0,22.0,65,0.00,,,0.00,Wunderground v.1.15,2013-06-23 15:50:00,
2013-06-23 13:00:00,78.5,66.2,30.23,West,280,1.0,1.0,66,0.00,,,0.00,Wunderground v.1.15,2013-06-23 16:00:00,
2013-06-23 13:10:00,78.9,66.1,30.21,WSW,245,1.0,1.0,65,0.00,,,0.00,Wunderground v.1.15,2013-06-23 16:10:00,
2013-06-23 13:20:00,79.0,65.3,30.23,NE,44,1.0,1.0,63,0.00,,,0.00,Wunderground v.1.15,2013-06-23 16:20:00,
2013-06-23 13:30:00,79.4,65.7,30.22,NNW,342,0.0,22.0,63,0.00,,,0.00,Wunderground v.1.15,2013-06-23 16:30:00,
2013-06-23 13:40:00,79.5,65.3,30.20,NW,307,1.0,1.0,62,0.00,,,0.00,Wunderground v.1.15,2013-06-23 16:40:00,
2013-06-23 13:50:00,80.1,65.4,30.22,NW,314,0.0,22.0,61,0.00,,,0.00,Wunderground v.1.15,2013-06-23 16:50:00,
2013-06-23 14:00:00,80.1,65.9,30.22,ENE,62,0.0,22.0,62,0.00,,,0.00,Wunderground v.1.15,2013-06-23 17:00:00,
2013-06-23 14:10:00,80.7,65.5,30.19,West,259,0.0,22.0,60,0.00,,,0.00,Wunderground v.1.15,2013-06-23 17:10:00,
2013-06-23 14:20:00,80.9,66.2,30.21,NNW,348,0.0,22.0,61,0.00,,,0.00,Wunderground v.1.15,2013-06-23 17:20:00,
2013-06-23 14:30:00,80.3,66.6,30.19,ESE,114,0.0,22.0,63,0.00,,,0.00,Wunderground v.1.15,2013-06-23 17:30:00,
2013-06-23 14:40:00,80.3,66.1,30.20,WNW,300,1.0,1.0,62,0.00,,,0.00,Wunderground v.1.15,2013-06-23 17:40:00,
2013-06-23 14:50:00,78.8,66.0,30.18,West,269,0.0,22.0,65,0.00,,,0.00,Wunderground v.1.15,2013-06-23 17:50:00,
2013-06-23 15:00:00,77.9,65.6,30.21,WNW,291,0.0,22.0,66,0.00,,,0.00,Wunderground v.1.15,2013-06-23 18:00:00,
2013-06-23 15:10:00,77.4,65.1,30.19,East,90,1.0,1.0,66,0.00,,,0.00,Wunderground v.1.15,2013-06-23 18:10:00,
2013-06-23 15:20:00,77.2,65.8,30.21,West,266,0.0,22.0,68,0.00,,,0.00,Wunderground v.1.15,2013-06-23 18:20:00,
2013-06-23 15:30:00,75.0,64.1,30.20,WNW,287,1.0,22.0,69,0.00,,,0.00,Wunderground v.1.15,2013-06-23 18:30:00,
2013-06-23 15:40:00,73.9,64.3,30.17,WNW,285,1.0,22.0,72,0.00,,,0.00,Wunderground v.1.15,2013-06-23 18:40:00,
2013-06-23 15:50:00,73.5,63.5,30.19,WNW,295,1.0,1.0,71,0.00,,,0.00,Wunderground v.1.15,2013-06-23 18:50:00,
2013-06-23 16:00:00,73.8,64.2,30.18,West,281,1.0,1.0,72,0.00,,,0.00,Wunderground v.1.15,2013-06-23 19:00:00,
2013-06-23 16:10:00,74.6,63.8,30.16,NW,315,1.0,22.0,69,0.00,,,0.00,Wunderground v.1.15,2013-06-23 19:10:00,
2013-06-23 16:20:00,75.1,64.6,30.17,WNW,300,0.0,22.0,70,0.00,,,0.00,Wunderground v.1.15,2013-06-23 19:20:00,
2013-06-23 16:30:00,76.1,64.8,30.16,NW,304,0.0,22.0,68,0.00,,,0.00,Wunderground v.1.15,2013-06-23 19:30:00,
2013-06-23 16:40:00,77.2,65.8,30.16,ENE,76,0.0,22.0,68,0.00,,,0.00,Wunderground v.1.15,2013-06-23 19:40:00,
2013-06-23 16:50:00,77.1,65.3,30.14,NNW,329,0.0,22.0,67,0.00,,,0.00,Wunderground v.1.15,2013-06-23 19:50:00,
2013-06-23 17:00:00,76.3,65.8,30.15,NW,315,0.0,22.0,70,0.00,,,0.00,Wunderground v.1.15,2013-06-23 20:00:00,
2013-06-23 17:10:00,76.8,66.7,30.13,NW,315,0.0,22.0,71,0.00,,,0.00,Wunderground v.1.15,2013-06-23 20:10:00,
2013-06-23 17:20:00,77.3,66.3,30.14,NW,318,0.0,22.0,69,0.00,,,0.00,Wunderground v.1.15,2013-06-23 20:20:00,
2013-06-23 17:30:00,76.8,66.3,30.11,NW,318,0.0,22.0,70,0.00,,,0.00,Wunderground v.1.15,2013-06-23 20:30:00,
2013-06-23 17:40:00,76.3,66.2,30.13,ENE,62,0.0,22.0,71,0.00,,,0.00,Wunderground v.1.15,2013-06-23 20:40:00,
2013-06-23 17:50:00,75.3,65.2,30.13,East,80,0.0,22.0,71,0.00,,,0.00,Wunderground v.1.15,2013-06-23 20:50:00,
2013-06-23 18:00:00,76.0,63.4,30.10,SSE,165,3.0,22.0,65,0.00,,,0.00,Wunderground v.1.15,2013-06-23 21:00:00,
2013-06-23 18:10:00,76.3,63.2,30.13,South,176,4.0,22.0,64,0.00,,,0.00,Wunderground v.1.15,2013-06-23 21:10:00,
2013-06-23 18:20:00,76.2,63.6,30.13,South,169,3.0,22.0,65,0.00,,,0.00,Wunderground v.1.15,2013-06-23 21:20:00,
2013-06-23 18:30:00,76.2,62.7,30.11,SSW,205,4.0,4.0,63,0.00,,,0.00,Wunderground v.1.15,2013-06-23 21:30:00,
2013-06-23 18:40:00,75.7,62.2,30.13,SW,228,4.0,22.0,63,0.00,,,0.00,Wunderground v.1.15,2013-06-23 21:40:00,
2013-06-23 18:50:00,74.8,62.2,30.13,SW,226,5.0,5.0,65,0.00,,,0.00,Wunderground v.1.15,2013-06-23 21:50:00,
2013-06-23 19:00:00,73.3,62.9,30.13,South,188,4.0,4.0,70,0.00,,,0.00,Wunderground v.1.15,2013-06-23 22:00:00,
2013-06-23 19:10:00,72.0,63.3,30.12,SSE,167,4.0,4.0,74,0.00,,,0.00,Wunderground v.1.15,2013-06-23 22:10:00,
2013-06-23 19:20:00,71.1,63.1,30.12,SW,236,4.0,22.0,76,0.00,,,0.00,Wunderground v.1.15,2013-06-23 22:20:00,
2013-06-23 19:30:00,70.8,63.6,30.12,South,183,5.0,5.0,78,0.00,,,0.00,Wunderground v.1.15,2013-06-23 22:30:00,
2013-06-23 19:40:00,70.5,63.3,30.14,SSW,211,4.0,4.0,78,0.00,,,0.00,Wunderground v.1.15,2013-06-23 22:40:00,
2013-06-23 19:50:00,70.4,62.8,30.14,South,190,5.0,5.0,77,0.00,,,0.00,Wunderground v.1.15,2013-06-23 22:50:00,
2013-06-23 20:00:00,70.4,62.8,30.14,South,188,6.0,22.0,77,0.00,,,0.00,Wunderground v.1.15,2013-06-23 23:00:00,
2013-06-23 20:10:00,70.4,62.8,30.14,South,185,5.0,22.0,77,0.00,,,0.00,Wunderground v.1.15,2013-06-23 23:10:00,
2013-06-23 20:20:00,70.2,63.0,30.14,SW,219,5.0,5.0,78,0.00,,,0.00,Wunderground v.1.15,2013-06-23 23:20:00,
2013-06-23 20:30:00,69.3,62.5,30.12,SSE,149,6.0,22.0,79,0.00,,,0.00,Wunderground v.1.15,2013-06-23 23:30:00,
2013-06-23 20:40:00,68.5,62.4,30.11,SSW,204,7.0,22.0,81,0.00,,,0.00,Wunderground v.1.15,2013-06-23 23:40:00,
2013-06-23 20:50:00,68.0,62.3,30.11,SSE,158,6.0,6.0,82,0.00,,,0.00,Wunderground v.1.15,2013-06-23 23:50:00,
2013-06-23 21:00:00,67.4,62.1,30.11,SSW,203,5.0,22.0,83,0.00,,,0.00,Wunderground v.1.15,2013-06-24 00:00:00,
2013-06-23 21:10:00,66.9,61.9,30.11,SSW,203,5.0,22.0,84,0.00,,,0.00,Wunderground v.1.15,2013-06-24 00:10:00,
2013-06-23 21:20:00,66.5,62.2,30.11,South,191,5.0,5.0,86,0.00,,,0.00,Wunderground v.1.15,2013-06-24 00:20:00,
2013-06-23 21:30:00,66.2,62.2,30.13,SSW,211,4.0,4.0,87,0.00,,,0.00,Wunderground v.1.15,2013-06-24 00:30:00,
2013-06-23 21:40:00,65.5,62.2,30.11,WSW,243,3.0,22.0,89,0.00,,,0.01,Wunderground v.1.15,2013-06-24 00:40:00,
2013-06-23 21:50:00,65.0,62.0,30.11,WSW,257,1.0,1.0,90,0.07,,,0.02,Wunderground v.1.15,2013-06-24 00:50:00,
2013-06-23 22:00:00,64.7,62.0,30.12,WSW,257,0.0,22.0,91,0.14,,,0.03,Wunderground v.1.15,2013-06-24 01:00:00,
2013-06-23 22:10:00,64.5,62.1,30.11,WSW,257,0.0,22.0,92,0.36,,,0.06,Wunderground v.1.15,2013-06-24 01:10:00,
2013-06-23 22:20:00,64.3,62.2,30.13,WSW,257,0.0,22.0,93,0.09,,,0.08,Wunderground v.1.15,2013-06-24 01:20:00,
2013-06-23 22:30:00,64.2,62.1,30.13,WSW,256,0.0,22.0,93,0.43,,,0.13,Wunderground v.1.15,2013-06-24 01:30:00,
2013-06-23 22:40:00,64.1,62.0,30.13,WSW,256,0.0,22.0,93,0.46,,,0.18,Wunderground v.1.15,2013-06-24 01:40:00,
2013-06-23 22:50:00,64.1,62.3,30.12,ESE,118,0.0,22.0,94,0.24,,,0.21,Wunderground v.1.15,2013-06-24 01:50:00,
2013-06-23 23:00:00,63.9,62.1,30.12,ESE,103,0.0,22.0,94,0.81,,,0.32,Wunderground v.1.15,2013-06-24 02:00:00,
2013-06-23 23:10:00,63.8,62.0,30.09,ESE,114,0.0,22.0,94,1.11,,,0.46,Wunderground v.1.15,2013-06-24 02:10:00,
2013-06-23 23:20:00,63.7,62.2,30.09,SE,129,0.0,22.0,95,0.41,,,0.54,Wunderground v.1.15,2013-06-24 02:20:00,
2013-06-23 23:30:00,63.7,62.2,30.10,ENE,75,1.0,22.0,95,0.15,,,0.60,Wunderground v.1.15,2013-06-24 02:30:00,
2013-06-23 23:40:00,63.7,62.2,30.10,East,101,1.0,1.0,95,0.07,,,0.61,Wunderground v.1.15,2013-06-24 02:40:00,
2013-06-23 23:50:00,63.6,62.1,30.10,SE,140,0.0,22.0,95,0.04,,,0.61,Wunderground v.1.15,2013-06-24 02:50:00,